EKSN/CNL METAR and TAF weather

Enter ICAO airport designator
Station Type Date Time Source
EKSN METAR 2020/07/09 12:50 UTC NOAA

EKSN 091250Z 25008KT 9999 FEW034 BKN230 17/09 Q1011


Station Type Date Time Source
EKSN Decoded METAR 2020/07/09 12:50 UTC NOAA

Sindal Flyveplads, Denmark (EKSN) 57-30N 010-13E 28M
Jul 09, 2020 - 08:50 AM EDT / 2020.07.09 1250 UTC
Wind: from the WSW (250 degrees) at 9 MPH (8 KT):0
Visibility: greater than 7 mile(s):0
Sky conditions: mostly cloudy
Temperature: 62 F (17 C)
Dew Point: 48 F (9 C)
Relative Humidity: 59%
Pressure (altimeter): 29.85 in. Hg (1011 hPa)
ob: EKSN 091250Z 25008KT 9999 FEW034 BKN230 17/09 Q1011
cycle: 13

Station Type Date Time Source
EKSN TAF UTC NOAA

Error!

Example: see airport list